sensor_id;sensor_type;location;lat;lon;timestamp;P1;durP1;ratioP1;P2;durP2;ratioP2
20084;SDS011;10202;48.474;9.138;2023-04-30T00:00:32;9.10;;;6.55;;
20084;SDS011;10202;48.474;9.138;2023-04-30T00:03:00;9.15;;;6.60;;
20084;SDS011;10202;48.474;9.138;2023-04-30T00:05:26;11.18;;;7.13;;
20084;SDS011;10202;48.474;9.138;2023-04-30T00:07:54;9.85;;;6.53;;
20084;SDS011;10202;48.474;9.138;2023-04-30T00:10:24;9.63;;;6.68;;
20084;SDS011;10202;48.474;9.138;2023-04-30T00:12:50;10.32;;;6.93;;
20084;SDS011;10202;48.474;9.138;2023-04-30T00:15:15;8.40;;;6.07;;
20084;SDS011;10202;48.474;9.138;2023-04-30T00:17:43;10.63;;;6.50;;
20084;SDS011;10202;48.474;9.138;2023-04-30T00:20:09;7.55;;;6.10;;
20084;SDS011;10202;48.474;9.138;2023-04-30T00:22:38;9.20;;;7.18;;
20084;SDS011;10202;48.474;9.138;2023-04-30T00:25:08;8.75;;;6.53;;
20084;SDS011;10202;48.474;9.138;2023-04-30T00:27:38;8.70;;;6.80;;
20084;SDS011;10202;48.474;9.138;2023-04-30T00:30:05;9.82;;;6.75;;
20084;SDS011;10202;48.474;9.138;2023-04-30T00:32:33;9.30;;;6.75;;
20084;SDS011;10202;48.474;9.138;2023-04-30T00:34:59;13.55;;;6.68;;
20084;SDS011;10202;48.474;9.138;2023-04-30T00:37:29;8.40;;;6.63;;
20084;SDS011;10202;48.474;9.138;2023-04-30T00:39:55;11.68;;;6.90;;
20084;SDS011;10202;48.474;9.138;2023-04-30T00:42:22;13.35;;;7.30;;
20084;SDS011;10202;48.474;9.138;2023-04-30T00:44:51;10.73;;;6.78;;
20084;SDS011;10202;48.474;9.138;2023-04-30T00:47:19;9.00;;;6.78;;
20084;SDS011;10202;48.474;9.138;2023-04-30T00:49:47;7.80;;;6.32;;
20084;SDS011;10202;48.474;9.138;2023-04-30T00:52:15;10.27;;;7.30;;
20084;SDS011;10202;48.474;9.138;2023-04-30T00:54:41;13.90;;;7.28;;
20084;SDS011;10202;48.474;9.138;2023-04-30T00:57:11;12.32;;;8.18;;
20084;SDS011;10202;48.474;9.138;2023-04-30T00:59:39;10.45;;;7.65;;
20084;SDS011;10202;48.474;9.138;2023-04-30T01:02:08;10.32;;;7.50;;
20084;SDS011;10202;48.474;9.138;2023-04-30T01:04:36;10.55;;;7.53;;
20084;SDS011;10202;48.474;9.138;2023-04-30T01:07:05;10.00;;;7.05;;
20084;SDS011;10202;48.474;9.138;2023-04-30T01:09:31;10.07;;;7.47;;
20084;SDS011;10202;48.474;9.138;2023-04-30T01:12:07;10.93;;;7.43;;
20084;SDS011;10202;48.474;9.138;2023-04-30T01:17:47;11.27;;;6.97;;
20084;SDS011;10202;48.474;9.138;2023-04-30T01:20:31;9.25;;;7.15;;
20084;SDS011;10202;48.474;9.138;2023-04-30T01:29:16;8.73;;;6.78;;
20084;SDS011;10202;48.474;9.138;2023-04-30T01:31:46;9.38;;;6.55;;
20084;SDS011;10202;48.474;9.138;2023-04-30T01:34:11;12.07;;;7.07;;
20084;SDS011;10202;48.474;9.138;2023-04-30T01:36:58;8.27;;;6.22;;
20084;SDS011;10202;48.474;9.138;2023-04-30T01:40:07;10.95;;;6.85;;
20084;SDS011;10202;48.474;9.138;2023-04-30T01:42:51;10.45;;;6.93;;
20084;SDS011;10202;48.474;9.138;2023-04-30T01:53:45;10.93;;;7.35;;
20084;SDS011;10202;48.474;9.138;2023-04-30T01:59:00;12.65;;;6.72;;
20084;SDS011;10202;48.474;9.138;2023-04-30T02:01:29;10.05;;;6.80;;
20084;SDS011;10202;48.474;9.138;2023-04-30T02:03:57;9.02;;;6.57;;
20084;SDS011;10202;48.474;9.138;2023-04-30T02:06:23;9.40;;;6.53;;
20084;SDS011;10202;48.474;9.138;2023-04-30T02:08:52;10.48;;;6.60;;
20084;SDS011;10202;48.474;9.138;2023-04-30T02:11:29;8.25;;;6.30;;
20084;SDS011;10202;48.474;9.138;2023-04-30T02:13:57;9.85;;;6.43;;
20084;SDS011;10202;48.474;9.138;2023-04-30T02:16:25;8.93;;;6.05;;
20084;SDS011;10202;48.474;9.138;2023-04-30T02:18:50;8.70;;;6.40;;
20084;SDS011;10202;48.474;9.138;2023-04-30T02:21:19;7.43;;;5.93;;
20084;SDS011;10202;48.474;9.138;2023-04-30T02:23:45;9.85;;;6.25;;
20084;SDS011;10202;48.474;9.138;2023-04-30T02:26:14;10.63;;;6.35;;
20084;SDS011;10202;48.474;9.138;2023-04-30T02:28:39;9.48;;;6.38;;
20084;SDS011;10202;48.474;9.138;2023-04-30T02:31:05;7.25;;;5.72;;
20084;SDS011;10202;48.474;9.138;2023-04-30T02:33:30;6.57;;;5.80;;
20084;SDS011;10202;48.474;9.138;2023-04-30T02:35:58;8.23;;;5.43;;
20084;SDS011;10202;48.474;9.138;2023-04-30T02:38:25;12.05;;;6.00;;
20084;SDS011;10202;48.474;9.138;2023-04-30T02:40:53;8.63;;;5.93;;
20084;SDS011;10202;48.474;9.138;2023-04-30T02:43:20;8.13;;;5.47;;
20084;SDS011;10202;48.474;9.138;2023-04-30T02:45:46;7.45;;;5.32;;
20084;SDS011;10202;48.474;9.138;2023-04-30T02:48:13;7.93;;;5.40;;
20084;SDS011;10202;48.474;9.138;2023-04-30T02:50:41;7.10;;;5.60;;
20084;SDS011;10202;48.474;9.138;2023-04-30T02:53:12;7.85;;;6.00;;
20084;SDS011;10202;48.474;9.138;2023-04-30T02:55:40;7.63;;;5.60;;
20084;SDS011;10202;48.474;9.138;2023-04-30T02:58:08;8.20;;;5.80;;
20084;SDS011;10202;48.474;9.138;2023-04-30T03:00:39;7.38;;;4.88;;
20084;SDS011;10202;48.474;9.138;2023-04-30T03:03:07;7.88;;;5.95;;
20084;SDS011;10202;48.474;9.138;2023-04-30T03:05:35;15.77;;;5.63;;
20084;SDS011;10202;48.474;9.138;2023-04-30T03:08:03;13.18;;;5.57;;
20084;SDS011;10202;48.474;9.138;2023-04-30T03:10:29;7.57;;;5.50;;
20084;SDS011;10202;48.474;9.138;2023-04-30T03:12:57;8.40;;;5.10;;
20084;SDS011;10202;48.474;9.138;2023-04-30T03:15:22;6.70;;;4.95;;
20084;SDS011;10202;48.474;9.138;2023-04-30T03:17:48;6.72;;;5.35;;
20084;SDS011;10202;48.474;9.138;2023-04-30T03:20:16;7.13;;;5.10;;
20084;SDS011;10202;48.474;9.138;2023-04-30T03:22:41;8.20;;;4.68;;
20084;SDS011;10202;48.474;9.138;2023-04-30T03:25:12;6.80;;;5.20;;
20084;SDS011;10202;48.474;9.138;2023-04-30T03:27:37;8.32;;;5.28;;
20084;SDS011;10202;48.474;9.138;2023-04-30T03:30:08;8.02;;;5.00;;
20084;SDS011;10202;48.474;9.138;2023-04-30T03:32:39;7.63;;;5.07;;
20084;SDS011;10202;48.474;9.138;2023-04-30T03:35:04;8.98;;;5.35;;
20084;SDS011;10202;48.474;9.138;2023-04-30T03:37:33;8.02;;;5.30;;
20084;SDS011;10202;48.474;9.138;2023-04-30T03:40:01;8.18;;;5.75;;
20084;SDS011;10202;48.474;9.138;2023-04-30T03:42:29;8.15;;;5.75;;
20084;SDS011;10202;48.474;9.138;2023-04-30T03:44:59;8.30;;;5.80;;
20084;SDS011;10202;48.474;9.138;2023-04-30T03:47:27;6.70;;;5.65;;
20084;SDS011;10202;48.474;9.138;2023-04-30T03:49:55;8.55;;;5.65;;
20084;SDS011;10202;48.474;9.138;2023-04-30T03:52:23;7.90;;;5.63;;
20084;SDS011;10202;48.474;9.138;2023-04-30T03:54:49;6.68;;;5.18;;
20084;SDS011;10202;48.474;9.138;2023-04-30T03:57:18;9.15;;;5.47;;
20084;SDS011;10202;48.474;9.138;2023-04-30T03:59:46;7.75;;;5.30;;
20084;SDS011;10202;48.474;9.138;2023-04-30T04:02:16;8.57;;;5.47;;
20084;SDS011;10202;48.474;9.138;2023-04-30T04:04:45;7.68;;;5.80;;
20084;SDS011;10202;48.474;9.138;2023-04-30T04:07:16;8.50;;;5.78;;
20084;SDS011;10202;48.474;9.138;2023-04-30T04:09:44;9.45;;;6.25;;
20084;SDS011;10202;48.474;9.138;2023-04-30T04:12:12;9.75;;;5.88;;
20084;SDS011;10202;48.474;9.138;2023-04-30T04:14:38;7.60;;;5.65;;
20084;SDS011;10202;48.474;9.138;2023-04-30T04:17:08;9.32;;;5.70;;
20084;SDS011;10202;48.474;9.138;2023-04-30T04:19:38;7.45;;;5.93;;
20084;SDS011;10202;48.474;9.138;2023-04-30T04:22:04;7.60;;;5.78;;
20084;SDS011;10202;48.474;9.138;2023-04-30T04:24:33;10.13;;;6.03;;
20084;SDS011;10202;48.474;9.138;2023-04-30T04:27:01;8.57;;;5.72;;
20084;SDS011;10202;48.474;9.138;2023-04-30T04:29:31;8.48;;;6.30;;
20084;SDS011;10202;48.474;9.138;2023-04-30T04:31:59;7.43;;;5.57;;
20084;SDS011;10202;48.474;9.138;2023-04-30T04:34:28;9.38;;;6.30;;
20084;SDS011;10202;48.474;9.138;2023-04-30T04:37:02;8.65;;;5.82;;
20084;SDS011;10202;48.474;9.138;2023-04-30T04:39:28;10.57;;;6.35;;
20084;SDS011;10202;48.474;9.138;2023-04-30T04:41:56;8.73;;;6.13;;
20084;SDS011;10202;48.474;9.138;2023-04-30T04:44:24;6.93;;;5.75;;
20084;SDS011;10202;48.474;9.138;2023-04-30T04:46:55;8.40;;;6.40;;
20084;SDS011;10202;48.474;9.138;2023-04-30T04:49:23;7.72;;;6.05;;
20084;SDS011;10202;48.474;9.138;2023-04-30T04:51:50;9.30;;;6.45;;
20084;SDS011;10202;48.474;9.138;2023-04-30T04:54:20;10.70;;;6.47;;
20084;SDS011;10202;48.474;9.138;2023-04-30T04:56:51;8.80;;;6.60;;
20084;SDS011;10202;48.474;9.138;2023-04-30T04:59:16;10.45;;;6.68;;
20084;SDS011;10202;48.474;9.138;2023-04-30T05:01:44;11.35;;;6.07;;
20084;SDS011;10202;48.474;9.138;2023-04-30T05:04:09;9.13;;;5.93;;
20084;SDS011;10202;48.474;9.138;2023-04-30T05:06:38;11.80;;;6.13;;
20084;SDS011;10202;48.474;9.138;2023-04-30T05:09:10;9.35;;;6.03;;
20084;SDS011;10202;48.474;9.138;2023-04-30T05:11:38;11.43;;;6.15;;
20084;SDS011;10202;48.474;9.138;2023-04-30T05:14:06;8.05;;;6.10;;
20084;SDS011;10202;48.474;9.138;2023-04-30T05:16:32;10.32;;;5.82;;
20084;SDS011;10202;48.474;9.138;2023-04-30T05:18:57;13.45;;;6.43;;
20084;SDS011;10202;48.474;9.138;2023-04-30T05:21:25;8.00;;;6.00;;
20084;SDS011;10202;48.474;9.138;2023-04-30T05:23:54;9.85;;;6.18;;
20084;SDS011;10202;48.474;9.138;2023-04-30T05:26:22;8.77;;;6.20;;
20084;SDS011;10202;48.474;9.138;2023-04-30T05:28:53;8.88;;;5.57;;
20084;SDS011;10202;48.474;9.138;2023-04-30T05:31:18;7.50;;;5.55;;
20084;SDS011;10202;48.474;9.138;2023-04-30T05:33:49;9.98;;;6.30;;
20084;SDS011;10202;48.474;9.138;2023-04-30T05:36:14;7.63;;;6.00;;
20084;SDS011;10202;48.474;9.138;2023-04-30T05:38:40;8.23;;;6.10;;
20084;SDS011;10202;48.474;9.138;2023-04-30T05:41:09;9.05;;;6.07;;
20084;SDS011;10202;48.474;9.138;2023-04-30T05:43:38;8.52;;;6.28;;
20084;SDS011;10202;48.474;9.138;2023-04-30T05:46:06;9.90;;;6.38;;
20084;SDS011;10202;48.474;9.138;2023-04-30T05:48:34;9.07;;;6.20;;
20084;SDS011;10202;48.474;9.138;2023-04-30T05:51:02;8.80;;;6.15;;
20084;SDS011;10202;48.474;9.138;2023-04-30T05:53:29;9.90;;;6.30;;
20084;SDS011;10202;48.474;9.138;2023-04-30T05:55:55;8.88;;;6.40;;
20084;SDS011;10202;48.474;9.138;2023-04-30T05:58:20;8.73;;;6.53;;
20084;SDS011;10202;48.474;9.138;2023-04-30T06:00:49;8.60;;;6.30;;
20084;SDS011;10202;48.474;9.138;2023-04-30T06:03:16;8.45;;;6.05;;
20084;SDS011;10202;48.474;9.138;2023-04-30T06:05:43;9.50;;;6.60;;
20084;SDS011;10202;48.474;9.138;2023-04-30T06:08:11;9.55;;;7.00;;
20084;SDS011;10202;48.474;9.138;2023-04-30T06:10:39;8.82;;;6.50;;
20084;SDS011;10202;48.474;9.138;2023-04-30T06:13:10;9.02;;;6.30;;
20084;SDS011;10202;48.474;9.138;2023-04-30T06:15:36;8.90;;;6.47;;
20084;SDS011;10202;48.474;9.138;2023-04-30T06:18:02;10.50;;;6.40;;
20084;SDS011;10202;48.474;9.138;2023-04-30T06:20:28;9.20;;;6.75;;
20084;SDS011;10202;48.474;9.138;2023-04-30T06:22:55;8.70;;;6.38;;
20084;SDS011;10202;48.474;9.138;2023-04-30T06:25:36;10.93;;;6.57;;
20084;SDS011;10202;48.474;9.138;2023-04-30T06:28:02;10.77;;;7.03;;
20084;SDS011;10202;48.474;9.138;2023-04-30T06:30:33;8.77;;;6.43;;
20084;SDS011;10202;48.474;9.138;2023-04-30T06:33:00;9.93;;;6.65;;
20084;SDS011;10202;48.474;9.138;2023-04-30T06:35:25;8.65;;;6.55;;
20084;SDS011;10202;48.474;9.138;2023-04-30T06:37:51;10.20;;;6.55;;
20084;SDS011;10202;48.474;9.138;2023-04-30T06:40:24;11.00;;;6.93;;
20084;SDS011;10202;48.474;9.138;2023-04-30T06:42:49;9.70;;;6.88;;
20084;SDS011;10202;48.474;9.138;2023-04-30T06:45:15;9.50;;;7.20;;
20084;SDS011;10202;48.474;9.138;2023-04-30T06:47:43;8.38;;;6.32;;
20084;SDS011;10202;48.474;9.138;2023-04-30T06:50:13;10.20;;;7.22;;
20084;SDS011;10202;48.474;9.138;2023-04-30T06:52:40;11.18;;;7.07;;
20084;SDS011;10202;48.474;9.138;2023-04-30T06:55:08;9.95;;;6.80;;
20084;SDS011;10202;48.474;9.138;2023-04-30T06:57:33;11.23;;;7.53;;
20084;SDS011;10202;48.474;9.138;2023-04-30T07:00:04;10.27;;;7.75;;
20084;SDS011;10202;48.474;9.138;2023-04-30T07:02:30;9.00;;;7.15;;
20084;SDS011;10202;48.474;9.138;2023-04-30T07:04:56;11.57;;;7.80;;
20084;SDS011;10202;48.474;9.138;2023-04-30T07:07:24;11.63;;;7.13;;
20084;SDS011;10202;48.474;9.138;2023-04-30T07:09:49;11.93;;;7.45;;
20084;SDS011;10202;48.474;9.138;2023-04-30T07:12:17;9.35;;;6.97;;
20084;SDS011;10202;48.474;9.138;2023-04-30T07:14:44;10.95;;;7.20;;
20084;SDS011;10202;48.474;9.138;2023-04-30T07:17:14;11.98;;;7.05;;
20084;SDS011;10202;48.474;9.138;2023-04-30T07:19:39;12.27;;;7.43;;
20084;SDS011;10202;48.474;9.138;2023-04-30T07:22:05;10.05;;;7.10;;
20084;SDS011;10202;48.474;9.138;2023-04-30T07:24:33;9.40;;;7.32;;
20084;SDS011;10202;48.474;9.138;2023-04-30T07:26:59;9.55;;;7.00;;
20084;SDS011;10202;48.474;9.138;2023-04-30T07:29:27;9.38;;;7.03;;
20084;SDS011;10202;48.474;9.138;2023-04-30T07:32:00;11.13;;;7.63;;
20084;SDS011;10202;48.474;9.138;2023-04-30T07:34:25;13.00;;;7.28;;
20084;SDS011;10202;48.474;9.138;2023-04-30T07:36:54;10.85;;;6.72;;
20084;SDS011;10202;48.474;9.138;2023-04-30T07:39:27;13.05;;;7.20;;
20084;SDS011;10202;48.474;9.138;2023-04-30T07:41:55;9.95;;;7.00;;
20084;SDS011;10202;48.474;9.138;2023-04-30T07:44:21;10.05;;;7.25;;
20084;SDS011;10202;48.474;9.138;2023-04-30T07:46:46;9.65;;;7.40;;
20084;SDS011;10202;48.474;9.138;2023-04-30T07:49:12;9.82;;;6.97;;
20084;SDS011;10202;48.474;9.138;2023-04-30T07:51:38;11.52;;;7.20;;
20084;SDS011;10202;48.474;9.138;2023-04-30T07:54:09;8.73;;;6.63;;
20084;SDS011;10202;48.474;9.138;2023-04-30T07:56:36;8.50;;;7.05;;
20084;SDS011;10202;48.474;9.138;2023-04-30T07:59:04;15.63;;;7.35;;
20084;SDS011;10202;48.474;9.138;2023-04-30T08:01:32;10.20;;;6.93;;
20084;SDS011;10202;48.474;9.138;2023-04-30T08:03:58;11.13;;;8.13;;
20084;SDS011;10202;48.474;9.138;2023-04-30T08:06:29;9.07;;;6.72;;
20084;SDS011;10202;48.474;9.138;2023-04-30T08:08:56;8.65;;;6.88;;
20084;SDS011;10202;48.474;9.138;2023-04-30T08:11:22;7.72;;;6.22;;
20084;SDS011;10202;48.474;9.138;2023-04-30T08:13:47;10.27;;;6.47;;
20084;SDS011;10202;48.474;9.138;2023-04-30T08:16:15;7.65;;;6.22;;
20084;SDS011;10202;48.474;9.138;2023-04-30T08:18:46;7.40;;;5.68;;
20084;SDS011;10202;48.474;9.138;2023-04-30T08:21:13;6.60;;;5.05;;
20084;SDS011;10202;48.474;9.138;2023-04-30T08:23:41;7.10;;;5.50;;
20084;SDS011;10202;48.474;9.138;2023-04-30T08:26:15;6.45;;;5.35;;
20084;SDS011;10202;48.474;9.138;2023-04-30T08:28:45;11.15;;;7.28;;
20084;SDS011;10202;48.474;9.138;2023-04-30T08:31:13;8.80;;;6.72;;
20084;SDS011;10202;48.474;9.138;2023-04-30T08:33:39;5.40;;;4.30;;
20084;SDS011;10202;48.474;9.138;2023-04-30T08:36:09;5.20;;;4.15;;
20084;SDS011;10202;48.474;9.138;2023-04-30T08:38:40;5.88;;;3.85;;
20084;SDS011;10202;48.474;9.138;2023-04-30T08:41:13;5.40;;;3.80;;
20084;SDS011;10202;48.474;9.138;2023-04-30T08:43:45;4.90;;;3.90;;
20084;SDS011;10202;48.474;9.138;2023-04-30T08:46:13;4.68;;;3.42;;
20084;SDS011;10202;48.474;9.138;2023-04-30T08:48:44;4.07;;;3.67;;
20084;SDS011;10202;48.474;9.138;2023-04-30T08:51:10;5.82;;;4.07;;
20084;SDS011;10202;48.474;9.138;2023-04-30T08:53:38;4.95;;;3.95;;
20084;SDS011;10202;48.474;9.138;2023-04-30T08:56:04;4.00;;;3.60;;
20084;SDS011;10202;48.474;9.138;2023-04-30T08:58:33;5.75;;;3.25;;
20084;SDS011;10202;48.474;9.138;2023-04-30T09:01:02;5.85;;;4.10;;
20084;SDS011;10202;48.474;9.138;2023-04-30T09:03:29;4.25;;;3.58;;
20084;SDS011;10202;48.474;9.138;2023-04-30T09:05:58;4.60;;;3.55;;
20084;SDS011;10202;48.474;9.138;2023-04-30T09:08:45;4.72;;;3.45;;
20084;SDS011;10202;48.474;9.138;2023-04-30T09:11:22;4.72;;;3.42;;
20084;SDS011;10202;48.474;9.138;2023-04-30T09:13:57;4.40;;;3.33;;
20084;SDS011;10202;48.474;9.138;2023-04-30T09:16:26;5.57;;;3.42;;
20084;SDS011;10202;48.474;9.138;2023-04-30T09:19:27;5.65;;;3.97;;
20084;SDS011;10202;48.474;9.138;2023-04-30T09:21:54;6.53;;;3.88;;
20084;SDS011;10202;48.474;9.138;2023-04-30T09:24:20;4.38;;;3.97;;
20084;SDS011;10202;48.474;9.138;2023-04-30T09:26:46;8.82;;;3.65;;
20084;SDS011;10202;48.474;9.138;2023-04-30T09:29:14;4.75;;;3.78;;
20084;SDS011;10202;48.474;9.138;2023-04-30T09:31:43;4.45;;;3.80;;
20084;SDS011;10202;48.474;9.138;2023-04-30T09:34:12;6.00;;;4.18;;
20084;SDS011;10202;48.474;9.138;2023-04-30T09:36:53;4.32;;;3.72;;
20084;SDS011;10202;48.474;9.138;2023-04-30T09:39:19;8.50;;;4.38;;
20084;SDS011;10202;48.474;9.138;2023-04-30T09:41:51;4.30;;;3.90;;
20084;SDS011;10202;48.474;9.138;2023-04-30T09:44:29;6.93;;;4.30;;
20084;SDS011;10202;48.474;9.138;2023-04-30T09:47:00;5.47;;;3.50;;
20084;SDS011;10202;48.474;9.138;2023-04-30T09:49:34;5.30;;;3.75;;
20084;SDS011;10202;48.474;9.138;2023-04-30T09:52:04;4.63;;;3.50;;
20084;SDS011;10202;48.474;9.138;2023-04-30T09:54:32;3.38;;;3.00;;
20084;SDS011;10202;48.474;9.138;2023-04-30T09:57:00;5.00;;;3.40;;
20084;SDS011;10202;48.474;9.138;2023-04-30T09:59:30;3.85;;;2.83;;
20084;SDS011;10202;48.474;9.138;2023-04-30T10:02:03;3.65;;;2.70;;
20084;SDS011;10202;48.474;9.138;2023-04-30T10:04:36;4.38;;;2.90;;
20084;SDS011;10202;48.474;9.138;2023-04-30T10:07:11;3.28;;;2.50;;
20084;SDS011;10202;48.474;9.138;2023-04-30T10:09:48;3.45;;;2.95;;
20084;SDS011;10202;48.474;9.138;2023-04-30T10:12:33;3.22;;;2.60;;
20084;SDS011;10202;48.474;9.138;2023-04-30T10:15:19;4.72;;;3.10;;
20084;SDS011;10202;48.474;9.138;2023-04-30T10:17:53;3.90;;;3.50;;
20084;SDS011;10202;48.474;9.138;2023-04-30T10:20:29;7.93;;;3.75;;
20084;SDS011;10202;48.474;9.138;2023-04-30T10:23:00;6.20;;;3.78;;
20084;SDS011;10202;48.474;9.138;2023-04-30T10:25:26;5.05;;;3.65;;
20084;SDS011;10202;48.474;9.138;2023-04-30T10:27:55;3.83;;;3.08;;
20084;SDS011;10202;48.474;9.138;2023-04-30T10:30:23;4.88;;;3.22;;
20084;SDS011;10202;48.474;9.138;2023-04-30T10:32:55;5.10;;;3.40;;
20084;SDS011;10202;48.474;9.138;2023-04-30T10:35:28;5.50;;;2.92;;
20084;SDS011;10202;48.474;9.138;2023-04-30T10:38:06;4.45;;;3.30;;
20084;SDS011;10202;48.474;9.138;2023-04-30T10:40:57;6.75;;;3.17;;
20084;SDS011;10202;48.474;9.138;2023-04-30T10:43:30;3.63;;;2.90;;
20084;SDS011;10202;48.474;9.138;2023-04-30T10:45:57;4.50;;;3.63;;
20084;SDS011;10202;48.474;9.138;2023-04-30T10:48:28;4.03;;;2.97;;
20084;SDS011;10202;48.474;9.138;2023-04-30T10:50:59;6.07;;;3.30;;
20084;SDS011;10202;48.474;9.138;2023-04-30T10:53:30;4.05;;;3.30;;
20084;SDS011;10202;48.474;9.138;2023-04-30T10:56:03;3.92;;;3.03;;
20084;SDS011;10202;48.474;9.138;2023-04-30T10:58:31;4.45;;;2.90;;
20084;SDS011;10202;48.474;9.138;2023-04-30T11:01:11;4.30;;;3.80;;
20084;SDS011;10202;48.474;9.138;2023-04-30T11:04:03;9.75;;;5.35;;
20084;SDS011;10202;48.474;9.138;2023-04-30T11:06:47;4.47;;;3.30;;
20084;SDS011;10202;48.474;9.138;2023-04-30T11:09:55;3.20;;;2.90;;
20084;SDS011;10202;48.474;9.138;2023-04-30T11:12:14;5.93;;;3.50;;
20084;SDS011;10202;48.474;9.138;2023-04-30T11:14:45;3.22;;;2.92;;
20084;SDS011;10202;48.474;9.138;2023-04-30T11:17:23;3.65;;;3.10;;
20084;SDS011;10202;48.474;9.138;2023-04-30T11:19:50;6.93;;;4.30;;
20084;SDS011;10202;48.474;9.138;2023-04-30T11:22:23;8.25;;;4.88;;
20084;SDS011;10202;48.474;9.138;2023-04-30T11:24:50;3.50;;;3.20;;
20084;SDS011;10202;48.474;9.138;2023-04-30T11:27:23;3.50;;;3.13;;
20084;SDS011;10202;48.474;9.138;2023-04-30T11:29:52;9.05;;;3.22;;
20084;SDS011;10202;48.474;9.138;2023-04-30T11:32:22;3.20;;;2.90;;
20084;SDS011;10202;48.474;9.138;2023-04-30T11:34:54;3.88;;;3.13;;
20084;SDS011;10202;48.474;9.138;2023-04-30T11:37:39;3.85;;;3.00;;
20084;SDS011;10202;48.474;9.138;2023-04-30T11:40:12;5.05;;;3.33;;
20084;SDS011;10202;48.474;9.138;2023-04-30T11:42:42;4.70;;;2.90;;
20084;SDS011;10202;48.474;9.138;2023-04-30T11:45:15;3.72;;;3.20;;
20084;SDS011;10202;48.474;9.138;2023-04-30T11:47:45;3.47;;;3.15;;
20084;SDS011;10202;48.474;9.138;2023-04-30T11:50:18;3.33;;;3.03;;
20084;SDS011;10202;48.474;9.138;2023-04-30T11:52:51;3.72;;;3.33;;
20084;SDS011;10202;48.474;9.138;2023-04-30T11:55:19;6.95;;;3.35;;
20084;SDS011;10202;48.474;9.138;2023-04-30T11:57:56;3.47;;;3.10;;
20084;SDS011;10202;48.474;9.138;2023-04-30T12:00:27;3.40;;;3.10;;
20084;SDS011;10202;48.474;9.138;2023-04-30T12:02:55;3.65;;;3.22;;
20084;SDS011;10202;48.474;9.138;2023-04-30T12:05:26;3.55;;;3.17;;
20084;SDS011;10202;48.474;9.138;2023-04-30T12:07:55;4.15;;;3.10;;
20084;SDS011;10202;48.474;9.138;2023-04-30T12:10:25;3.90;;;3.10;;
20084;SDS011;10202;48.474;9.138;2023-04-30T12:12:53;5.03;;;2.88;;
20084;SDS011;10202;48.474;9.138;2023-04-30T12:15:20;3.20;;;2.92;;
20084;SDS011;10202;48.474;9.138;2023-04-30T12:17:50;4.70;;;2.90;;
20084;SDS011;10202;48.474;9.138;2023-04-30T12:20:18;7.18;;;3.50;;
20084;SDS011;10202;48.474;9.138;2023-04-30T12:22:47;3.60;;;3.30;;
20084;SDS011;10202;48.474;9.138;2023-04-30T12:25:18;3.30;;;3.00;;
20084;SDS011;10202;48.474;9.138;2023-04-30T12:27:47;3.83;;;3.00;;
20084;SDS011;10202;48.474;9.138;2023-04-30T12:30:18;5.15;;;3.30;;
20084;SDS011;10202;48.474;9.138;2023-04-30T12:32:53;3.67;;;3.28;;
20084;SDS011;10202;48.474;9.138;2023-04-30T12:35:26;4.15;;;3.47;;
20084;SDS011;10202;48.474;9.138;2023-04-30T12:38:06;4.07;;;3.38;;
20084;SDS011;10202;48.474;9.138;2023-04-30T12:40:39;5.22;;;3.33;;
20084;SDS011;10202;48.474;9.138;2023-04-30T12:43:06;3.67;;;3.20;;
20084;SDS011;10202;48.474;9.138;2023-04-30T12:45:44;3.25;;;2.95;;
20084;SDS011;10202;48.474;9.138;2023-04-30T12:48:16;2.95;;;2.70;;
20084;SDS011;10202;48.474;9.138;2023-04-30T12:53:24;5.90;;;2.70;;
20084;SDS011;10202;48.474;9.138;2023-04-30T12:56:07;2.80;;;2.40;;
20084;SDS011;10202;48.474;9.138;2023-04-30T12:58:45;3.97;;;2.58;;
20084;SDS011;10202;48.474;9.138;2023-04-30T13:01:15;3.08;;;2.17;;
20084;SDS011;10202;48.474;9.138;2023-04-30T13:03:45;2.92;;;2.63;;
20084;SDS011;10202;48.474;9.138;2023-04-30T13:06:16;4.97;;;2.85;;
20084;SDS011;10202;48.474;9.138;2023-04-30T13:08:42;4.07;;;2.58;;
20084;SDS011;10202;48.474;9.138;2023-04-30T13:11:12;8.00;;;2.85;;
20084;SDS011;10202;48.474;9.138;2023-04-30T13:13:37;4.05;;;2.90;;
20084;SDS011;10202;48.474;9.138;2023-04-30T13:16:09;3.70;;;2.50;;
20084;SDS011;10202;48.474;9.138;2023-04-30T13:18:36;3.13;;;2.83;;
20084;SDS011;10202;48.474;9.138;2023-04-30T13:21:02;3.22;;;2.50;;
20084;SDS011;10202;48.474;9.138;2023-04-30T13:23:28;2.65;;;2.45;;
20084;SDS011;10202;48.474;9.138;2023-04-30T13:25:56;5.68;;;2.83;;
20084;SDS011;10202;48.474;9.138;2023-04-30T13:28:21;3.17;;;2.72;;
20084;SDS011;10202;48.474;9.138;2023-04-30T13:30:47;4.50;;;2.80;;
20084;SDS011;10202;48.474;9.138;2023-04-30T13:33:12;5.18;;;2.85;;
20084;SDS011;10202;48.474;9.138;2023-04-30T13:35:43;4.97;;;2.70;;
20084;SDS011;10202;48.474;9.138;2023-04-30T13:38:11;4.18;;;2.40;;
20084;SDS011;10202;48.474;9.138;2023-04-30T13:40:39;3.35;;;2.85;;
20084;SDS011;10202;48.474;9.138;2023-04-30T13:43:05;3.80;;;2.75;;
20084;SDS011;10202;48.474;9.138;2023-04-30T13:45:33;3.92;;;3.00;;
20084;SDS011;10202;48.474;9.138;2023-04-30T13:47:58;7.55;;;3.00;;
20084;SDS011;10202;48.474;9.138;2023-04-30T13:50:24;7.03;;;3.00;;
20084;SDS011;10202;48.474;9.138;2023-04-30T13:52:55;4.60;;;2.92;;
20084;SDS011;10202;48.474;9.138;2023-04-30T13:55:25;4.32;;;3.20;;
20084;SDS011;10202;48.474;9.138;2023-04-30T13:57:56;2.72;;;2.53;;
20084;SDS011;10202;48.474;9.138;2023-04-30T14:00:22;4.93;;;2.75;;
20084;SDS011;10202;48.474;9.138;2023-04-30T14:02:47;3.10;;;2.80;;
20084;SDS011;10202;48.474;9.138;2023-04-30T14:05:15;4.43;;;2.80;;
20084;SDS011;10202;48.474;9.138;2023-04-30T14:07:45;3.55;;;2.58;;
20084;SDS011;10202;48.474;9.138;2023-04-30T14:10:14;5.60;;;3.15;;
20084;SDS011;10202;48.474;9.138;2023-04-30T14:12:46;3.60;;;2.80;;
20084;SDS011;10202;48.474;9.138;2023-04-30T14:15:13;3.75;;;3.10;;
20084;SDS011;10202;48.474;9.138;2023-04-30T14:17:38;4.43;;;3.35;;
20084;SDS011;10202;48.474;9.138;2023-04-30T14:20:07;5.25;;;3.13;;
20084;SDS011;10202;48.474;9.138;2023-04-30T14:22:36;3.20;;;2.83;;
20084;SDS011;10202;48.474;9.138;2023-04-30T14:25:03;3.90;;;3.08;;
20084;SDS011;10202;48.474;9.138;2023-04-30T14:27:31;4.63;;;3.28;;
20084;SDS011;10202;48.474;9.138;2023-04-30T14:30:01;3.83;;;3.17;;
20084;SDS011;10202;48.474;9.138;2023-04-30T14:32:30;3.50;;;2.92;;
20084;SDS011;10202;48.474;9.138;2023-04-30T14:34:55;6.65;;;2.95;;
20084;SDS011;10202;48.474;9.138;2023-04-30T14:37:29;4.38;;;3.10;;
20084;SDS011;10202;48.474;9.138;2023-04-30T14:39:55;3.60;;;2.90;;
20084;SDS011;10202;48.474;9.138;2023-04-30T14:42:26;3.75;;;3.35;;
20084;SDS011;10202;48.474;9.138;2023-04-30T14:44:54;7.20;;;2.90;;
20084;SDS011;10202;48.474;9.138;2023-04-30T14:47:24;5.75;;;2.85;;
20084;SDS011;10202;48.474;9.138;2023-04-30T14:49:54;3.65;;;2.80;;
20084;SDS011;10202;48.474;9.138;2023-04-30T14:52:19;2.90;;;2.60;;
20084;SDS011;10202;48.474;9.138;2023-04-30T14:54:47;3.88;;;3.10;;
20084;SDS011;10202;48.474;9.138;2023-04-30T14:57:13;3.85;;;3.22;;
20084;SDS011;10202;48.474;9.138;2023-04-30T14:59:41;3.55;;;2.88;;
20084;SDS011;10202;48.474;9.138;2023-04-30T15:02:07;2.90;;;2.65;;
20084;SDS011;10202;48.474;9.138;2023-04-30T15:04:33;5.45;;;2.65;;
20084;SDS011;10202;48.474;9.138;2023-04-30T15:06:58;3.22;;;2.90;;
20084;SDS011;10202;48.474;9.138;2023-04-30T15:09:30;2.58;;;2.38;;
20084;SDS011;10202;48.474;9.138;2023-04-30T15:11:56;4.50;;;2.90;;
20084;SDS011;10202;48.474;9.138;2023-04-30T15:14:26;3.00;;;2.70;;
20084;SDS011;10202;48.474;9.138;2023-04-30T15:16:52;3.15;;;2.70;;
20084;SDS011;10202;48.474;9.138;2023-04-30T15:19:17;3.22;;;2.90;;
20084;SDS011;10202;48.474;9.138;2023-04-30T15:21:45;2.80;;;2.58;;